WetterOnline ( https://www.wetteronline.de )

Wetter aktuell Ottensoos

Aktuelles Wetter: Nürnberg/Flughafen (318m)

6-stündlich | Neueste Meldungen
Ortszeit Temperatur Wetter
Sa, 18.09. 14:00 19.0° C wolkig
Sa, 18.09. 8:00 9.4° C wolkig
Sa, 18.09. 2:00 8.7° C leicht bewölkt
Fr, 17.09. 20:00 15.0° C bewölkt
Fr, 17.09. 14:00 16.9° C bewölkt
Fr, 17.09. 8:00 8.8° C wolkig
Fr, 17.09. 2:00 9.6° C leicht bewölkt
Do, 16.09. 20:00 15.4° C bewölkt
Ortszeit Temperatur Wetter
Sa, 18.09. 19:20 16° C -
Sa, 18.09. 19:00 17.4° C fast wolkenlos
Sa, 18.09. 18:50 17.4° C wolkenlos
Sa, 18.09. 18:40 17.7° C wolkenlos
Sa, 18.09. 18:30 17.9° C wolkenlos
Sa, 18.09. 18:20 17.9° C wolkenlos
Sa, 18.09. 18:00 18.5° C fast wolkenlos
Sa, 18.09. 17:30 18.9° C wolkenlos
Sa, 18.09. 17:00 18.9° C fast wolkenlos
Sa, 18.09. 16:30 18.9° C wolkig
Sa, 18.09. 16:00 19.4° C leicht bewölkt
Ortszeit Relative Feuchte Sichtweite
Sa, 18.09. 14:00 61% 40 km
Sa, 18.09. 8:00 95% 18 km
Sa, 18.09. 2:00 95% 20 km
Fr, 17.09. 20:00 83% 60 km
Fr, 17.09. 14:00 63% 45 km
Fr, 17.09. 8:00 97% 10 km
Fr, 17.09. 2:00 95% 15 km
Do, 16.09. 20:00 79% 40 km
Ortszeit Relative Feuchte Sichtweite
Sa, 18.09. 19:20 72% >10 km
Sa, 18.09. 19:00 63% 50 km
Sa, 18.09. 18:50 63% -
Sa, 18.09. 18:40 61% -
Sa, 18.09. 18:30 60% 55 km
Sa, 18.09. 18:20 60% -
Sa, 18.09. 18:00 56% 50 km
Sa, 18.09. 17:30 57% 60 km
Sa, 18.09. 17:00 56% 50 km
Sa, 18.09. 16:30 55% 65 km
Sa, 18.09. 16:00 57% 50 km
Ortszeit Niederschlagsmenge Niederschlagsart
Sa, 18.09. 14:00 0.0 l/m2 in 6 Std. -
Sa, 18.09. 8:00 0.0 l/m2 in 12 Std. Nebel
Sa, 18.09. 2:00 0.0 l/m2 in 6 Std. -
Fr, 17.09. 20:00 0.0 l/m2 in 12 Std. -
Fr, 17.09. 14:00 0.0 l/m2 in 6 Std. -
Fr, 17.09. 8:00 0.0 l/m2 in 12 Std. -
Fr, 17.09. 2:00 0.0 l/m2 in 6 Std. -
Do, 16.09. 20:00 2 l/m2 in 12 Std. Regen
Ortszeit Niederschlagsmenge Niederschlagsart
Sa, 18.09. 19:20 keine Meldung -
Sa, 18.09. 19:00 0.0 l/m2 in 1 Std. -
Sa, 18.09. 18:50 keine Meldung -
Sa, 18.09. 18:40 keine Meldung -
Sa, 18.09. 18:30 0.0 l/m2 in 1 Std. -
Sa, 18.09. 18:20 keine Meldung -
Sa, 18.09. 18:00 0.0 l/m2 in 1 Std. -
Sa, 18.09. 17:30 0.0 l/m2 in 1 Std. -
Sa, 18.09. 17:00 0.0 l/m2 in 1 Std. -
Sa, 18.09. 16:30 0.0 l/m2 in 1 Std. -
Sa, 18.09. 16:00 0.0 l/m2 in 1 Std. -
Ortszeit Stärke Spitze Richtung
km/h Bft. km/h Grad Sektor
Sa, 18.09. 14:00 11 2 28 340° N
Sa, 18.09. 8:00 4 1 11 120° SO
Sa, 18.09. 2:00 6 1 9 140° SO
Fr, 17.09. 20:00 4 1 18 50° NO
Fr, 17.09. 14:00 7 2 20 280° W
Fr, 17.09. 8:00 4 1 11 70° O
Fr, 17.09. 2:00 4 1 18 110° O
Do, 16.09. 20:00 13 3 30 300° NW
Ortszeit Stärke Spitze Richtung
km/h Bft. km/h Grad Sektor
Sa, 18.09. 19:20 9 2 - 30° NO
Sa, 18.09. 19:00 9 2 19 360° N
Sa, 18.09. 18:50 9 2 - 360° N
Sa, 18.09. 18:40 7 2 - 350° N
Sa, 18.09. 18:30 13 3 19 360° N
Sa, 18.09. 18:20 13 3 - 360° N
Sa, 18.09. 18:00 14 3 25 350° N
Sa, 18.09. 17:30 15 3 26 350° N
Sa, 18.09. 17:00 11 2 29 360° N
Sa, 18.09. 16:30 17 3 30 340° N
Sa, 18.09. 16:00 11 2 22 350° N
Ortszeit Untergrenze Bedeckung Gattung
total tief tief mittel hoch
Sa, 18.09. 14:00 840 m 6/8 1/8 Cu - Ci
Sa, 18.09. 8:00 2100 m 5/8 4/8 Sc Ac Ci
Sa, 18.09. 2:00 2400 m 5/8 5/8 - Ac -
Fr, 17.09. 20:00 1500 m 7/8 7/8 Sc - Ci
Fr, 17.09. 14:00 780 m 7/8 7/8 Cu - -
Fr, 17.09. 8:00 150 m 5/8 5/8 Sc - -
Fr, 17.09. 2:00 1500 m 3/8 1/8 Sc - Ci
Do, 16.09. 20:00 660 m 7/8 6/8 Cu - Ci
Ortszeit Bedeckungsgrad in Achtel und Wolkenuntergrenze
Sa, 18.09. 19:20 keine Wolken(unter 1500 m)
Sa, 18.09. 19:00 1(1200m)
Sa, 18.09. 18:50 keine Wolken
Sa, 18.09. 18:40 keine Wolken
Sa, 18.09. 18:30 keine Wolken
Sa, 18.09. 18:20 keine Wolken
Sa, 18.09. 18:00 1(1140m)
Sa, 18.09. 17:30 keine Wolken
Sa, 18.09. 17:00 1(1200m)
Sa, 18.09. 16:30 2(1200m) 5(1800m)
Sa, 18.09. 16:00 2(1110m) 3(1500m)
Ortszeit Luftdruck NN (hPa) Tendenz (hPa in 3 Std.)
Sa, 18.09. 14:00 1016 - 0,4
Sa, 18.09. 8:00 1017 + 0,4
Sa, 18.09. 2:00 1017 + 0,1
Fr, 17.09. 20:00 1015 - 0,3
Fr, 17.09. 14:00 1016 - 0,8
Fr, 17.09. 8:00 1018 + 0,3
Fr, 17.09. 2:00 1018 + 0,2
Do, 16.09. 20:00 1017 + 0,8
Ortszeit Luftdruck NN (hPa) Tendenz (hPa in 3 Std.)
Sa, 18.09. 19:20 1015 keine Meldung
Sa, 18.09. 19:00 1015 - 0,4
Sa, 18.09. 18:50 1015 keine Meldung
Sa, 18.09. 18:40 1015 keine Meldung
Sa, 18.09. 18:30 1015 - 0,4
Sa, 18.09. 18:20 1015 keine Meldung
Sa, 18.09. 18:00 1015 - 0,5
Sa, 18.09. 17:30 1015 - 0,7
Sa, 18.09. 17:00 1015 - 0,7
Sa, 18.09. 16:30 1015 - 0,6
Sa, 18.09. 16:00 1015 - 0,7
Ortszeit Schneehöhe (cm)
Sa, 18.09. 14:00 0
Sa, 18.09. 8:00 0
Sa, 18.09. 2:00 0
Fr, 17.09. 20:00 0
Fr, 17.09. 14:00 0
Fr, 17.09. 8:00 0
Fr, 17.09. 2:00 0
Do, 16.09. 20:00 0
Ortszeit Schneehöhe (cm)
Sa, 18.09. 19:20 -
Sa, 18.09. 19:00 -
Sa, 18.09. 18:50 -
Sa, 18.09. 18:40 -
Sa, 18.09. 18:30 -
Sa, 18.09. 18:20 -
Sa, 18.09. 18:00 -
Sa, 18.09. 17:30 -
Sa, 18.09. 17:00 -
Sa, 18.09. 16:30 -
Sa, 18.09. 16:00 -
Link zu dieser Seite / Seite empfehlen

Das Wetter in ...